Time;durP1;ratioP1;P1;durP2;ratioP2;P2;SDS_P1;SDS_P2;PMS_P1;PMS_P2;Temp;Humidity;BMP_temperature;BMP_pressure;BME280_temperature;BME280_humidity;BME280_pressure;Samples;Min_cycle;Max_cycle;Signal;HPM_P1;HPM_P2
2022/11/26 00:09:57;;;;;;;29.40;10.05;;;;;;;4.69;100.00;101411.06;20878413;28;20037;-83
2022/11/26 00:19:59;;;;;;;26.17;8.90;;;;;;;4.59;100.00;101424.66;20880671;28;20050;-83
2022/11/26 00:30:00;;;;;;;26.70;8.48;;;;;;;4.54;100.00;101432.31;20879608;28;20486;-83
2022/11/26 00:40:02;;;;;;;24.65;8.23;;;;;;;4.60;100.00;101448.03;20876171;28;20041;-83
2022/11/26 00:50:03;;;;;;;22.35;8.10;;;;;;;4.62;100.00;101459.31;20876018;28;20119;-83
2022/11/26 01:00:05;;;;;;;28.27;8.55;;;;;;;4.67;100.00;101475.00;20879139;28;20049;-83
2022/11/26 01:10:06;;;;;;;23.83;7.88;;;;;;;4.76;100.00;101490.81;20873526;28;20045;-83
2022/11/26 01:20:08;;;;;;;22.88;8.48;;;;;;;4.84;100.00;101504.88;20865759;28;20049;-82
2022/11/26 01:30:09;;;;;;;25.75;8.88;;;;;;;4.91;100.00;101523.19;20849943;28;20042;-82
2022/11/26 01:40:10;;;;;;;30.63;9.50;;;;;;;5.03;100.00;101526.06;20856831;28;20468;-82
2022/11/26 01:50:12;;;;;;;24.30;7.85;;;;;;;5.11;100.00;101542.72;20905033;28;20053;-83
2022/11/26 02:00:13;;;;;;;18.90;7.18;;;;;;;5.25;100.00;101553.44;20890924;28;20387;-82
2022/11/26 02:10:15;;;;;;;22.33;7.53;;;;;;;5.38;100.00;101556.38;20871292;28;20068;-83
2022/11/26 02:20:16;;;;;;;21.38;7.60;;;;;;;5.57;100.00;101556.81;20872057;28;20783;-82
2022/11/26 02:30:18;;;;;;;26.35;7.75;;;;;;;5.72;100.00;101566.69;20868054;28;20045;-82
2022/11/26 02:40:19;;;;;;;25.10;6.88;;;;;;;5.83;100.00;101575.59;20858683;28;20098;-82
2022/11/26 02:50:20;;;;;;;25.02;6.75;;;;;;;5.88;100.00;101586.97;20856017;28;20056;-83
2022/11/26 03:00:22;;;;;;;18.45;6.90;;;;;;;5.77;100.00;101596.25;20865960;28;20548;-83
2022/11/26 03:10:23;;;;;;;17.65;6.70;;;;;;;5.71;100.00;101599.59;20864399;28;20045;-83
2022/11/26 03:20:25;;;;;;;18.67;6.80;;;;;;;5.70;100.00;101613.44;20865221;28;20503;-83
2022/11/26 03:30:26;;;;;;;24.88;7.38;;;;;;;5.68;100.00;101620.28;20860348;28;20050;-83
2022/11/26 03:40:27;;;;;;;20.90;7.13;;;;;;;5.60;100.00;101614.03;20860257;28;20132;-83
2022/11/26 03:50:29;;;;;;;23.65;7.65;;;;;;;5.38;100.00;101603.13;20861019;28;20045;-83
2022/11/26 04:00:30;;;;;;;23.17;7.65;;;;;;;5.14;100.00;101612.91;20869274;28;20045;-83
2022/11/26 04:10:32;;;;;;;19.85;7.30;;;;;;;4.81;100.00;101611.16;20875322;28;20049;-83
2022/11/26 04:20:33;;;;;;;20.63;7.63;;;;;;;4.59;100.00;101608.81;20895768;23;20513;-70
2022/11/26 04:30:34;;;;;;;15.98;7.57;;;;;;;4.52;100.00;101612.06;20911414;28;20048;-70
2022/11/26 04:40:36;;;;;;;29.30;10.57;;;;;;;4.49;100.00;101624.94;20925167;22;20504;-73
2022/11/26 04:50:37;;;;;;;21.75;8.93;;;;;;;4.47;100.00;101639.59;20911242;28;20049;-71
2022/11/26 05:00:38;;;;;;;25.65;8.65;;;;;;;4.48;100.00;101644.81;20909657;28;20110;-71
2022/11/26 05:10:40;;;;;;;24.88;8.15;;;;;;;4.54;100.00;101650.16;20909488;28;20048;-70
2022/11/26 05:20:41;;;;;;;19.45;8.43;;;;;;;4.64;100.00;101666.88;20909289;28;20048;-71
2022/11/26 05:30:43;;;;;;;20.42;8.80;;;;;;;4.65;100.00;101694.59;20990978;28;20496;-70
2022/11/26 05:40:44;;;;;;;26.42;9.48;;;;;;;4.72;100.00;101698.25;20989918;28;20056;-71
2022/11/26 05:50:46;;;;;;;26.77;9.82;;;;;;;4.85;100.00;101706.41;20988579;28;20056;-70
2022/11/26 06:00:54;;;;;;;24.10;9.55;;;;;;;4.87;100.00;101716.84;20986948;28;20088;-70
2022/11/26 06:10:55;;;;;;;33.95;11.20;;;;;;;4.95;100.00;101732.63;20985210;28;20063;-72
2022/11/26 06:20:57;;;;;;;30.02;10.43;;;;;;;5.03;100.00;101738.91;20986674;28;20048;-71
2022/11/26 06:30:58;;;;;;;34.25;10.90;;;;;;;5.11;100.00;101753.88;20985741;28;20492;-70
2022/11/26 06:41:00;;;;;;;22.70;10.02;;;;;;;5.07;100.00;101761.53;20985101;28;20072;-70
2022/11/26 06:51:01;;;;;;;27.30;10.70;;;;;;;5.14;100.00;101779.06;20984591;28;20075;-70
2022/11/26 07:01:02;;;;;;;25.55;10.68;;;;;;;5.10;100.00;101777.19;20984260;28;20463;-71
2022/11/26 07:11:04;;;;;;;29.70;11.38;;;;;;;5.05;100.00;101786.56;20983000;28;20082;-70
2022/11/26 07:21:05;;;;;;;31.92;12.45;;;;;;;5.00;100.00;101801.13;20985674;28;20114;-71
2022/11/26 07:31:07;;;;;;;33.20;12.23;;;;;;;4.99;100.00;101799.38;20997206;28;20095;-71
2022/11/26 07:41:16;;;;;;;30.75;12.43;;;;;;;4.89;100.00;101813.81;20997018;28;20045;-70
2022/11/26 07:51:17;;;;;;;34.58;14.35;;;;;;;4.91;100.00;101813.84;20997454;28;20052;-71
2022/11/26 08:01:19;;;;;;;39.05;15.52;;;;;;;4.99;100.00;101831.41;20996466;28;20089;-71
2022/11/26 08:11:20;;;;;;;41.17;13.23;;;;;;;5.23;100.00;101839.03;20993674;28;20048;-70
2022/11/26 08:21:22;;;;;;;35.47;13.98;;;;;;;5.23;100.00;101849.44;20993226;28;20522;-70
2022/11/26 08:31:26;;;;;;;33.03;12.77;;;;;;;5.29;100.00;101857.38;20990053;28;20036;-70
2022/11/26 08:41:28;;;;;;;;;;;;;;;5.62;100.00;101862.66;20991772;28;20389;-72
2022/11/26 08:51:29;;;;;;;30.55;11.00;;;;;;;5.85;100.00;101870.22;20995491;28;19920;-69
2022/11/26 09:01:34;;;;;;;29.13;10.88;;;;;;;6.05;100.00;101869.06;20996638;28;20094;-71
2022/11/26 09:11:35;;;;;;;25.73;10.90;;;;;;;6.24;100.00;101880.81;20991902;28;20227;-69
2022/11/26 09:21:37;;;;;;;22.27;10.20;;;;;;;6.42;100.00;101883.91;20989403;28;20459;-69
2022/11/26 09:31:38;;;;;;;33.00;12.85;;;;;;;6.48;100.00;101890.09;20986757;28;20052;-70
2022/11/26 09:41:59;;;;;;;25.30;9.45;;;;;;;6.55;100.00;101900.66;20986398;28;20531;-69
2022/11/26 09:52:01;;;;;;;20.67;9.77;;;;;;;6.64;100.00;101897.41;20987987;28;20057;-67
2022/11/26 10:02:02;;;;;;;19.40;8.60;;;;;;;6.82;100.00;101891.78;20985346;28;20044;-67
2022/11/26 10:12:03;;;;;;;19.88;7.13;;;;;;;6.71;100.00;101888.94;20985111;28;20045;-67
2022/11/26 10:22:05;;;;;;;15.40;6.75;;;;;;;6.87;100.00;101909.25;20985107;28;20048;-67
2022/11/26 10:32:06;;;;;;;19.20;7.22;;;;;;;7.16;100.00;101902.13;20980485;28;20048;-70
2022/11/26 10:42:08;;;;;;;15.93;6.80;;;;;;;7.29;100.00;101890.25;21005189;23;20049;-74
2022/11/26 10:52:09;;;;;;;10.55;4.97;;;;;;;7.09;100.00;101886.31;20900689;28;20416;-71
2022/11/26 11:02:10;;;;;;;11.80;4.50;;;;;;;7.25;100.00;101887.53;20899740;28;20098;-73
2022/11/26 11:12:12;;;;;;;13.07;4.90;;;;;;;7.48;100.00;101865.47;20901951;28;20049;-72
2022/11/26 11:22:13;;;;;;;11.52;4.63;;;;;;;7.89;100.00;101858.44;20908671;28;20079;-72
2022/11/26 11:32:14;;;;;;;11.50;4.25;;;;;;;7.79;100.00;101846.06;20899352;28;20107;-72
2022/11/26 11:42:16;;;;;;;12.88;3.80;;;;;;;7.96;100.00;101839.44;20899945;28;20103;-71
2022/11/26 11:52:17;;;;;;;11.02;3.30;;;;;;;7.72;100.00;101844.22;20934869;28;20106;-72
2022/11/26 12:02:19;;;;;;;11.65;3.65;;;;;;;7.92;100.00;101827.19;20979984;28;20044;-72
2022/11/26 12:12:20;;;;;;;9.80;3.53;;;;;;;8.00;100.00;101835.16;20989725;28;20102;-72
2022/11/26 12:22:22;;;;;;;10.43;3.22;;;;;;;8.09;100.00;101831.81;21044414;28;20120;-72
2022/11/26 12:32:23;;;;;;;13.40;4.38;;;;;;;7.92;100.00;101842.84;21077700;28;20100;-72
2022/11/26 12:42:25;;;;;;;10.20;3.97;;;;;;;8.04;100.00;101841.31;21076711;28;20082;-72
2022/11/26 12:52:26;;;;;;;9.65;3.28;;;;;;;8.23;100.00;101836.41;21076432;28;20060;-72
2022/11/26 13:02:27;;;;;;;10.85;3.55;;;;;;;8.05;100.00;101833.53;21072977;28;20516;-73
2022/11/26 13:12:29;;;;;;;13.75;3.30;;;;;;;8.09;100.00;101832.69;21045757;28;20059;-72
2022/11/26 13:22:30;;;;;;;9.27;2.80;;;;;;;8.16;100.00;101838.91;21073700;28;20444;-72
2022/11/26 13:32:32;;;;;;;10.75;3.15;;;;;;;8.12;100.00;101851.03;21073548;28;20044;-72
2022/11/26 13:42:33;;;;;;;8.98;3.47;;;;;;;8.08;100.00;101844.00;21073519;28;20051;-73
2022/11/26 13:52:34;;;;;;;8.85;2.70;;;;;;;7.87;100.00;101834.06;21083084;28;20052;-72
2022/11/26 14:02:36;;;;;;;8.85;2.50;;;;;;;7.60;100.00;101844.84;21071378;28;20052;-72
2022/11/26 14:12:37;;;;;;;8.90;2.40;;;;;;;7.32;100.00;101837.31;21070921;28;20048;-75
2022/11/26 14:22:39;;;;;;;9.82;2.90;;;;;;;7.27;100.00;101834.59;21018763;28;20063;-86
2022/11/26 14:32:40;;;;;;;8.57;3.08;;;;;;;7.21;100.00;101834.50;20984777;28;20055;-76
2022/11/26 14:42:43;;;;;;;7.68;2.88;;;;;;;7.26;100.00;101835.47;20985165;28;20500;-76
2022/11/26 14:52:45;;;;;;;5.28;2.67;;;;;;;7.15;100.00;101829.16;20978377;28;20056;-75
2022/11/26 15:02:46;;;;;;;8.18;3.35;;;;;;;7.05;100.00;101819.41;20988587;28;20056;-76
2022/11/26 15:12:48;;;;;;;8.40;3.30;;;;;;;6.88;100.00;101812.09;21059692;28;20078;-75
2022/11/26 15:22:49;;;;;;;10.27;3.50;;;;;;;6.61;100.00;101801.94;21067077;28;20073;-76
2022/11/26 15:32:51;;;;;;;9.90;3.67;;;;;;;6.12;100.00;101807.69;20997965;28;20504;-76
2022/11/26 15:42:52;;;;;;;11.65;4.57;;;;;;;5.95;100.00;101809.00;20977900;28;20075;-76
2022/11/26 15:52:53;;;;;;;11.30;5.68;;;;;;;5.78;100.00;101806.78;20996580;28;20557;-76
2022/11/26 16:02:54;;;;;;;13.32;5.47;;;;;;;5.44;100.00;101810.19;20994459;28;20056;-76
2022/11/26 16:12:56;;;;;;;14.95;7.55;;;;;;;5.20;100.00;101807.78;20995292;28;20514;-77
2022/11/26 16:22:57;;;;;;;65.82;33.58;;;;;;;5.04;100.00;101808.19;21045686;28;20041;-76
2022/11/26 16:32:59;;;;;;;45.55;23.88;;;;;;;4.81;100.00;101812.69;20999101;28;20047;-76
2022/11/26 16:43:00;;;;;;;44.05;23.70;;;;;;;4.64;100.00;101807.84;21095732;22;20052;-73
2022/11/26 16:53:01;;;;;;;22.08;10.68;;;;;;;4.43;100.00;101817.53;20990625;28;20553;-72
2022/11/26 17:03:03;;;;;;;26.15;13.05;;;;;;;4.22;100.00;101816.88;20983823;28;20504;-72
2022/11/26 17:13:04;;;;;;;46.60;22.55;;;;;;;4.04;100.00;101822.31;20985578;28;20056;-72
2022/11/26 17:23:06;;;;;;;37.55;18.05;;;;;;;3.93;100.00;101826.22;20981241;28;20056;-72
2022/11/26 17:33:07;;;;;;;23.60;12.30;;;;;;;3.78;100.00;101834.34;20979429;28;20048;-72
2022/11/26 17:43:08;;;;;;;25.55;14.30;;;;;;;3.58;100.00;101810.34;20978796;28;20508;-72
2022/11/26 17:53:10;;;;;;;27.83;14.65;;;;;;;3.50;100.00;101817.00;20977488;28;20106;-72
2022/11/26 18:03:11;;;;;;;27.58;15.95;;;;;;;3.51;100.00;101832.56;20977420;28;20052;-72
2022/11/26 18:13:12;;;;;;;26.00;15.73;;;;;;;3.31;100.00;101826.69;20977114;28;20059;-72
2022/11/26 18:23:13;;;;;;;32.97;15.93;;;;;;;3.21;100.00;101826.25;20977937;28;20102;-72
2022/11/26 18:33:15;;;;;;;31.10;17.95;;;;;;;3.08;100.00;101830.13;21008777;28;20109;-72
2022/11/26 18:43:16;;;;;;;21.33;9.98;;;;;;;3.11;100.00;101827.63;20978932;28;20217;-72
2022/11/26 18:53:19;;;;;;;33.00;17.02;;;;;;;3.00;100.00;101818.59;20976218;28;20048;-73
2022/11/26 19:03:20;;;;;;;19.95;10.23;;;;;;;2.96;100.00;101827.06;20973871;28;20048;-72
2022/11/26 19:13:22;;;;;;;19.08;9.90;;;;;;;2.88;100.00;101810.38;20974927;28;20052;-72
2022/11/26 19:23:26;;;;;;;18.80;8.50;;;;;;;2.76;100.00;101815.94;20987759;28;20064;-72
2022/11/26 19:33:28;;;;;;;18.20;8.07;;;;;;;2.75;100.00;101789.19;20988576;28;20048;-72
2022/11/26 19:43:29;;;;;;;15.30;6.60;;;;;;;2.58;100.00;101777.31;20977197;28;20117;-72
2022/11/26 19:53:30;;;;;;;16.98;7.50;;;;;;;2.45;100.00;101773.41;20983325;28;20044;-74
2022/11/26 20:03:32;;;;;;;32.85;12.88;;;;;;;2.23;100.00;101771.66;20979727;28;20056;-73
2022/11/26 20:13:37;;;;;;;14.80;7.22;;;;;;;2.17;100.00;101770.53;20977864;28;20083;-74
2022/11/26 20:23:39;;;;;;;23.25;8.70;;;;;;;2.06;100.00;101770.09;20989399;28;20361;-72
2022/11/26 20:33:40;;;;;;;55.00;27.23;;;;;;;1.90;100.00;101768.56;20983340;28;20040;-72
2022/11/26 20:43:41;;;;;;;53.10;29.60;;;;;;;1.76;100.00;101768.00;20977410;28;20175;-72
2022/11/26 20:53:44;;;;;;;53.15;26.83;;;;;;;1.65;100.00;101746.00;20978170;28;20052;-72
2022/11/26 21:03:46;;;;;;;46.22;22.73;;;;;;;1.60;100.00;101746.66;20978053;28;20113;-72
2022/11/26 21:13:47;;;;;;;43.75;22.85;;;;;;;1.76;100.00;101749.91;20968991;28;20048;-73
2022/11/26 21:23:48;;;;;;;50.05;26.20;;;;;;;1.86;100.00;101765.78;20970862;28;20328;-73
2022/11/26 21:33:49;;;;;;;46.38;26.77;;;;;;;1.80;100.00;101764.72;20969551;28;20045;-73
2022/11/26 21:43:51;;;;;;;42.92;22.02;;;;;;;1.69;100.00;101753.06;20969333;28;20495;-72
2022/11/26 21:53:52;;;;;;;38.28;18.45;;;;;;;1.80;100.00;101751.81;20970072;28;20488;-73
2022/11/26 22:03:53;;;;;;;46.95;21.48;;;;;;;2.08;100.00;101752.94;20968215;28;20052;-73
2022/11/26 22:13:55;;;;;;;46.08;22.85;;;;;;;2.19;100.00;101738.75;20968039;28;20059;-73
2022/11/26 22:23:56;;;;;;;43.42;20.17;;;;;;;2.14;100.00;101737.69;20967173;28;20048;-73
2022/11/26 22:33:58;;;;;;;50.70;21.30;;;;;;;2.13;100.00;101751.44;20964445;28;20379;-72
2022/11/26 22:43:59;;;;;;;41.17;21.48;;;;;;;2.00;100.00;101751.75;20967081;28;20071;-72
2022/11/26 22:54:01;;;;;;;39.72;20.05;;;;;;;1.89;100.00;101730.66;20966061;28;20047;-72
2022/11/26 23:04:02;;;;;;;41.05;21.35;;;;;;;1.83;100.00;101719.22;20967207;28;20113;-72
2022/11/26 23:14:05;;;;;;;41.60;18.35;;;;;;;1.64;100.00;101721.03;20969114;28;20048;-72
2022/11/26 23:24:07;;;;;;;34.08;16.35;;;;;;;1.48;100.00;101695.38;20970762;28;20480;-72
2022/11/26 23:34:08;;;;;;;38.85;16.63;;;;;;;1.37;100.00;101673.41;20966968;28;20102;-71
2022/11/26 23:44:10;;;;;;;43.35;16.73;;;;;;;1.32;100.00;101662.00;20971551;28;20044;-71
2022/11/26 23:54:11;;;;;;;39.13;17.17;;;;;;;1.44;100.00;101658.25;20967864;28;20057;-72
